Time;durP1;ratioP1;P1;durP2;ratioP2;P2;SDS_P1;SDS_P2;PMS_P1;PMS_P2;Temp;Humidity;BMP_temperature;BMP_pressure;BME280_temperature;BME280_humidity;BME280_pressure;Samples;Min_cycle;Max_cycle;Signal;HPM_P1;HPM_P2
2021/07/01 00:00:35;;;;;;;0.60;0.55;;;24.70;49.20;;;;;;5125601;28;19983;-35
2021/07/01 00:03:02;;;;;;;0.52;0.43;;;24.70;49.40;;;;;;5125843;28;20559;-35
2021/07/01 00:05:29;;;;;;;0.90;0.40;;;24.70;49.00;;;;;;5125400;28;20118;-35
2021/07/01 00:07:55;;;;;;;0.40;0.40;;;24.70;49.50;;;;;;5125350;28;20032;-36
2021/07/01 00:10:24;;;;;;;0.50;0.43;;;24.70;49.60;;;;;;5125531;28;20026;-35
2021/07/01 00:12:51;;;;;;;0.40;0.40;;;24.70;50.10;;;;;;5125504;28;20016;-34
2021/07/01 00:15:22;;;;;;;0.68;0.40;;;24.70;49.40;;;;;;5125362;28;20396;-35
2021/07/01 00:17:48;;;;;;;1.70;0.40;;;24.70;51.40;;;;;;5125218;28;20045;-35
2021/07/01 00:20:15;;;;;;;0.63;0.50;;;24.70;51.30;;;;;;5122627;28;20055;-35
2021/07/01 00:22:41;;;;;;;1.00;0.50;;;24.60;51.50;;;;;;5123555;28;20028;-35
2021/07/01 00:25:09;;;;;;;1.20;0.50;;;24.60;51.20;;;;;;5125071;28;20346;-34
2021/07/01 00:27:35;;;;;;;0.52;0.40;;;24.60;51.70;;;;;;5121176;28;20044;-35
2021/07/01 00:30:02;;;;;;;0.63;0.30;;;24.60;51.10;;;;;;5125260;28;20027;-35
2021/07/01 00:32:28;;;;;;;0.70;0.50;;;24.60;51.70;;;;;;5125235;28;20038;-35
2021/07/01 00:34:54;;;;;;;0.82;0.45;;;24.50;51.80;;;;;;5125509;28;20027;-35
2021/07/01 00:37:21;;;;;;;0.85;0.40;;;24.50;51.40;;;;;;5124538;28;20028;-35
2021/07/01 00:39:47;;;;;;;0.45;0.40;;;24.50;51.70;;;;;;5123073;28;20089;-35
2021/07/01 00:42:13;;;;;;;0.52;0.45;;;24.50;52.00;;;;;;5125146;28;20771;-35
2021/07/01 00:44:39;;;;;;;0.40;0.40;;;24.40;51.10;;;;;;5124667;28;20030;-34
2021/07/01 00:47:05;;;;;;;1.10;0.60;;;24.40;50.30;;;;;;5123603;28;20031;-35
2021/07/01 00:49:31;;;;;;;0.50;0.50;;;24.30;49.60;;;;;;5124786;28;20032;-35
2021/07/01 00:51:58;;;;;;;1.35;0.60;;;24.30;49.40;;;;;;5122804;28;20027;-35
2021/07/01 00:54:24;;;;;;;0.73;0.40;;;24.30;49.30;;;;;;5123171;28;20027;-35
2021/07/01 00:56:50;;;;;;;0.40;0.40;;;24.30;49.20;;;;;;5124307;28;20511;-34
2021/07/01 00:59:16;;;;;;;0.82;0.47;;;24.30;49.00;;;;;;5124886;28;20092;-35
2021/07/01 01:01:42;;;;;;;1.00;0.40;;;24.20;49.20;;;;;;5122630;28;20026;-34
2021/07/01 01:04:09;;;;;;;1.13;0.40;;;24.20;49.40;;;;;;5124372;28;20023;-34
2021/07/01 01:06:35;;;;;;;0.30;0.30;;;24.20;50.10;;;;;;5124405;27;20027;-34
2021/07/01 01:09:03;;;;;;;0.45;0.40;;;24.10;50.50;;;;;;5124098;28;20321;-34
2021/07/01 01:11:30;;;;;;;0.60;0.40;;;24.10;51.10;;;;;;5124102;28;20028;-34
2021/07/01 01:13:56;;;;;;;0.40;0.40;;;24.10;51.40;;;;;;5124341;28;20031;-34
2021/07/01 01:16:23;;;;;;;0.52;0.50;;;24.10;51.50;;;;;;5123774;28;20040;-34
2021/07/01 01:18:49;;;;;;;1.95;0.50;;;24.10;51.10;;;;;;5123928;28;20505;-35
2021/07/01 01:21:16;;;;;;;0.45;0.40;;;24.10;51.60;;;;;;5123475;28;20028;-35
2021/07/01 01:23:42;;;;;;;0.73;0.30;;;24.00;51.40;;;;;;5123457;28;20030;-34
2021/07/01 01:26:09;;;;;;;0.32;0.32;;;24.00;50.70;;;;;;5120220;28;20023;-35
2021/07/01 01:28:38;;;;;;;0.73;0.40;;;24.00;51.70;;;;;;5124219;28;20061;-34
2021/07/01 01:31:04;;;;;;;0.80;0.50;;;23.90;51.10;;;;;;5123452;28;20023;-35
2021/07/01 01:33:30;;;;;;;0.52;0.40;;;23.90;51.20;;;;;;5123645;28;20461;-34
2021/07/01 01:35:57;;;;;;;0.55;0.35;;;23.90;51.40;;;;;;5123527;28;21413;-34
2021/07/01 01:38:23;;;;;;;0.55;0.40;;;23.90;51.10;;;;;;5123657;28;20082;-34
2021/07/01 01:40:49;;;;;;;0.63;0.40;;;23.80;50.10;;;;;;5123513;28;20020;-35
2021/07/01 01:43:16;;;;;;;1.08;0.73;;;23.80;50.40;;;;;;5122319;28;20035;-34
2021/07/01 01:45:43;;;;;;;0.65;0.50;;;23.70;49.50;;;;;;5123839;28;20020;-34
2021/07/01 01:48:09;;;;;;;0.40;0.40;;;23.70;49.50;;;;;;5123727;28;20037;-34
2021/07/01 01:50:35;;;;;;;0.50;0.40;;;23.70;49.40;;;;;;5122915;28;20031;-35
2021/07/01 01:53:01;;;;;;;0.55;0.50;;;23.70;49.20;;;;;;5123693;28;20696;-34
2021/07/01 01:55:28;;;;;;;0.55;0.40;;;23.70;50.00;;;;;;5121954;28;20089;-34
2021/07/01 01:57:54;;;;;;;0.63;0.40;;;23.60;50.40;;;;;;5123531;28;20055;-34
2021/07/01 02:00:21;;;;;;;0.30;0.30;;;23.60;49.60;;;;;;5123889;28;20047;-34
2021/07/01 02:02:47;;;;;;;;;;;23.50;49.70;;;;;;5122062;28;20103;-34
2021/07/01 02:05:14;;;;;;;0.30;0.30;;;23.60;51.10;;;;;;5123395;28;19942;-35
2021/07/01 02:07:40;;;;;;;1.70;0.50;;;23.50;50.80;;;;;;5122861;28;20024;-34
2021/07/01 02:10:08;;;;;;;0.90;0.60;;;23.50;52.00;;;;;;5121724;28;20260;-34
2021/07/01 02:12:34;;;;;;;0.40;0.40;;;23.50;51.60;;;;;;5122295;28;20055;-35
2021/07/01 02:15:01;;;;;;;0.50;0.40;;;23.50;51.80;;;;;;5121862;28;20047;-34
2021/07/01 02:17:28;;;;;;;0.30;0.30;;;23.50;51.60;;;;;;5123127;28;20087;-34
2021/07/01 02:19:56;;;;;;;0.68;0.40;;;23.50;52.50;;;;;;5122952;28;20075;-34
2021/07/01 02:22:22;;;;;;;0.30;0.30;;;23.40;51.70;;;;;;5122146;28;20028;-34
2021/07/01 02:24:48;;;;;;;0.77;0.50;;;23.40;52.10;;;;;;5122778;28;20045;-35
2021/07/01 02:27:14;;;;;;;0.30;0.30;;;23.30;50.30;;;;;;5122995;28;20075;-34
2021/07/01 02:29:41;;;;;;;0.40;0.30;;;23.30;50.30;;;;;;5123044;28;20039;-34
2021/07/01 02:32:07;;;;;;;0.40;0.32;;;23.30;50.20;;;;;;5122573;28;20047;-34
2021/07/01 02:34:39;;;;;;;0.38;0.38;;;23.20;50.10;;;;;;5121493;28;20024;-35
2021/07/01 02:37:09;;;;;;;0.70;0.35;;;23.20;49.90;;;;;;5122607;28;20034;-35
2021/07/01 02:39:36;;;;;;;2.15;0.40;;;23.20;50.20;;;;;;5122489;28;20031;-34
2021/07/01 02:42:03;;;;;;;0.45;0.40;;;23.10;49.70;;;;;;5115599;28;20019;-35
2021/07/01 02:44:29;;;;;;;0.40;0.30;;;23.10;50.70;;;;;;5122347;28;20035;-34
2021/07/01 02:46:55;;;;;;;0.22;0.22;;;23.10;51.60;;;;;;5122504;28;20032;-34
2021/07/01 02:49:21;;;;;;;0.30;0.30;;;23.10;51.20;;;;;;5122416;28;20084;-35
2021/07/01 02:51:48;;;;;;;0.37;0.37;;;23.10;51.00;;;;;;5116651;28;20025;-34
2021/07/01 02:54:14;;;;;;;0.30;0.30;;;23.10;51.70;;;;;;5122546;28;20122;-34
2021/07/01 02:56:40;;;;;;;0.50;0.40;;;23.00;51.80;;;;;;5122821;28;20051;-34
2021/07/01 02:59:10;;;;;;;0.60;0.40;;;23.00;51.50;;;;;;5122915;28;20447;-34
2021/07/01 03:01:36;;;;;;;0.52;0.40;;;23.00;51.40;;;;;;5120985;28;20032;-34
2021/07/01 03:04:03;;;;;;;0.52;0.40;;;23.00;52.80;;;;;;5106135;28;20098;-34
2021/07/01 03:06:29;;;;;;;0.47;0.30;;;23.00;53.40;;;;;;5122346;28;20020;-34
2021/07/01 03:08:58;;;;;;;0.40;0.40;;;22.90;51.00;;;;;;5121103;28;20296;-34
2021/07/01 03:11:25;;;;;;;0.40;0.40;;;22.90;50.70;;;;;;5122295;28;20075;-34
2021/07/01 03:13:51;;;;;;;;;;;22.80;50.90;;;;;;5122673;28;20028;-34
2021/07/01 03:16:19;;;;;;;0.70;0.40;;;22.80;50.30;;;;;;5122286;28;19912;-34
2021/07/01 03:18:47;;;;;;;0.57;0.40;;;22.80;51.10;;;;;;5122238;28;20059;-35
2021/07/01 03:21:13;;;;;;;0.50;0.30;;;22.80;52.00;;;;;;5122490;28;20024;-34
2021/07/01 03:23:40;;;;;;;0.30;0.30;;;22.80;53.10;;;;;;5120893;28;20027;-34
2021/07/01 03:26:06;;;;;;;0.27;0.27;;;22.70;54.20;;;;;;5118317;28;20020;-34
2021/07/01 03:28:32;;;;;;;0.70;0.65;;;22.70;55.00;;;;;;5122700;28;20035;-34
2021/07/01 03:30:58;;;;;;;1.50;0.30;;;22.70;55.40;;;;;;5122173;28;20024;-37
2021/07/01 03:33:24;;;;;;;0.30;0.30;;;22.70;55.80;;;;;;5122245;28;20371;-34
2021/07/01 03:35:51;;;;;;;0.52;0.38;;;22.70;56.60;;;;;;5122061;28;20034;-35
2021/07/01 03:38:17;;;;;;;0.82;0.40;;;22.70;57.10;;;;;;5122509;28;20019;-35
2021/07/01 03:40:43;;;;;;;0.20;0.20;;;22.70;57.50;;;;;;5122307;28;20023;-34
2021/07/01 03:43:09;;;;;;;0.38;0.38;;;22.70;57.60;;;;;;5120458;28;20031;-34
2021/07/01 03:45:35;;;;;;;1.02;0.40;;;22.70;57.70;;;;;;5122284;28;20117;-34
2021/07/01 03:48:01;;;;;;;0.47;0.30;;;22.80;57.80;;;;;;5122009;28;20036;-34
2021/07/01 03:50:28;;;;;;;0.93;0.30;;;22.80;58.20;;;;;;5122380;28;20024;-33
2021/07/01 03:52:54;;;;;;;0.35;0.30;;;22.80;58.80;;;;;;5122232;28;20035;-34
2021/07/01 03:55:20;;;;;;;0.30;0.20;;;22.80;58.80;;;;;;5124851;28;20019;-34
2021/07/01 03:57:46;;;;;;;0.75;0.30;;;22.80;59.40;;;;;;5125881;28;20050;-34
2021/07/01 04:00:13;;;;;;;0.40;0.30;;;22.80;59.60;;;;;;5125939;28;20023;-34
2021/07/01 04:02:40;;;;;;;0.25;0.25;;;22.80;59.80;;;;;;5125507;28;20049;-34
2021/07/01 04:05:07;;;;;;;0.30;0.30;;;22.70;59.80;;;;;;5125511;28;20099;-34
2021/07/01 04:07:33;;;;;;;0.30;0.30;;;22.80;60.00;;;;;;5124021;28;20040;-34
2021/07/01 04:10:11;;;;;;;0.25;0.25;;;22.80;60.00;;;;;;5123860;28;20039;-35
2021/07/01 04:12:37;;;;;;;0.22;0.22;;;22.80;60.20;;;;;;5125172;27;20031;-34
2021/07/01 04:15:04;;;;;;;0.30;0.30;;;22.80;59.90;;;;;;5125808;28;20042;-35
2021/07/01 04:17:30;;;;;;;0.20;0.20;;;22.80;59.90;;;;;;5125367;28;20079;-34
2021/07/01 04:19:57;;;;;;;0.35;0.35;;;22.80;60.70;;;;;;5125676;27;20027;-34
2021/07/01 04:22:23;;;;;;;0.77;0.40;;;22.80;60.00;;;;;;5124002;28;20083;-34
2021/07/01 04:24:49;;;;;;;0.52;0.30;;;22.80;59.80;;;;;;5124965;28;20533;-34
2021/07/01 04:27:15;;;;;;;0.85;0.30;;;22.80;59.90;;;;;;5125314;28;20039;-34
2021/07/01 04:29:41;;;;;;;0.32;0.32;;;22.80;59.70;;;;;;5125320;28;20036;-34
2021/07/01 04:32:08;;;;;;;0.20;0.20;;;22.80;60.30;;;;;;5125515;28;20036;-34
2021/07/01 04:34:34;;;;;;;0.52;0.30;;;22.80;60.70;;;;;;5125087;27;20024;-34
2021/07/01 04:37:02;;;;;;;0.35;0.30;;;22.80;60.90;;;;;;5124946;28;20031;-34
2021/07/01 04:39:28;;;;;;;0.30;0.30;;;22.80;61.30;;;;;;5124872;28;20047;-34
2021/07/01 04:41:54;;;;;;;0.45;0.32;;;22.80;61.50;;;;;;5124638;28;20111;-34
2021/07/01 04:44:20;;;;;;;0.30;0.30;;;22.80;61.70;;;;;;5124815;27;20027;-34
2021/07/01 04:46:47;;;;;;;0.40;0.25;;;22.80;61.90;;;;;;5124823;28;20457;-34
2021/07/01 04:49:13;;;;;;;0.20;0.20;;;22.80;62.00;;;;;;5124804;28;20066;-35
2021/07/01 04:51:39;;;;;;;0.47;0.28;;;22.80;61.90;;;;;;5124721;28;20030;-34
2021/07/01 04:54:05;;;;;;;0.30;0.28;;;22.80;62.00;;;;;;5124367;28;20117;-34
2021/07/01 04:56:44;;;;;;;0.50;0.20;;;22.80;62.00;;;;;;5124886;27;20056;-34
2021/07/01 04:59:14;;;;;;;0.20;0.20;;;22.80;61.20;;;;;;5124497;28;20510;-35
2021/07/01 05:01:40;;;;;;;1.45;0.20;;;22.80;61.40;;;;;;5124658;28;20031;-34
2021/07/01 05:04:07;;;;;;;0.25;0.25;;;22.80;61.10;;;;;;5124403;28;20023;-34
2021/07/01 05:06:34;;;;;;;0.20;0.20;;;22.80;61.20;;;;;;5123156;28;20050;-34
2021/07/01 05:09:00;;;;;;;0.40;0.30;;;22.80;61.00;;;;;;5124215;28;20047;-34
2021/07/01 05:11:27;;;;;;;0.55;0.30;;;22.80;60.70;;;;;;5124392;28;20076;-35
2021/07/01 05:13:53;;;;;;;0.20;0.20;;;22.80;61.00;;;;;;5124093;28;20659;-34
2021/07/01 05:16:19;;;;;;;0.40;0.30;;;22.80;61.70;;;;;;5123954;27;20054;-34
2021/07/01 05:18:45;;;;;;;0.32;0.20;;;22.80;62.20;;;;;;5124092;28;20449;-34
2021/07/01 05:21:11;;;;;;;0.20;0.20;;;22.80;62.40;;;;;;5124291;28;20024;-34
2021/07/01 05:23:37;;;;;;;0.35;0.28;;;22.80;62.40;;;;;;5123924;28;20028;-33
2021/07/01 05:26:03;;;;;;;0.20;0.20;;;22.80;62.60;;;;;;5118573;28;20083;-34
2021/07/01 05:28:30;;;;;;;0.30;0.30;;;22.80;62.70;;;;;;5123971;28;20099;-35
2021/07/01 05:30:56;;;;;;;0.47;0.20;;;22.80;62.60;;;;;;5124166;28;20032;-34
2021/07/01 05:33:22;;;;;;;0.20;0.20;;;22.80;62.90;;;;;;5124138;28;20027;-35
2021/07/01 05:35:48;;;;;;;0.20;0.20;;;22.80;63.00;;;;;;5123392;28;20020;-35
2021/07/01 05:38:14;;;;;;;0.20;0.20;;;22.80;62.60;;;;;;5124144;28;20028;-35
2021/07/01 05:40:40;;;;;;;0.20;0.20;;;22.80;62.50;;;;;;5123418;28;20019;-34
2021/07/01 05:43:08;;;;;;;0.10;0.10;;;22.80;62.20;;;;;;5124037;28;20045;-34
2021/07/01 05:45:34;;;;;;;0.40;0.30;;;22.80;61.50;;;;;;5123190;28;20027;-35
2021/07/01 05:48:01;;;;;;;0.53;0.20;;;22.80;61.50;;;;;;5123878;28;20384;-34
2021/07/01 05:50:27;;;;;;;0.20;0.20;;;22.80;62.10;;;;;;5123807;28;20023;-34
2021/07/01 05:53:05;;;;;;;0.30;0.20;;;22.80;61.60;;;;;;5123725;28;20036;-34
2021/07/01 05:55:31;;;;;;;0.20;0.20;;;22.80;62.40;;;;;;5122896;28;20023;-34
2021/07/01 05:57:57;;;;;;;0.30;0.30;;;22.80;61.80;;;;;;5123657;28;20038;-35
2021/07/01 06:00:24;;;;;;;0.77;0.20;;;22.80;62.50;;;;;;5122254;28;20057;-34
2021/07/01 06:02:51;;;;;;;0.25;0.20;;;22.80;62.50;;;;;;5123425;28;20027;-34
2021/07/01 06:05:17;;;;;;;0.38;0.28;;;22.80;63.30;;;;;;5122754;28;20031;-34
2021/07/01 06:07:50;;;;;;;0.20;0.20;;;22.80;63.30;;;;;;5122384;28;20087;-35
2021/07/01 06:10:17;;;;;;;0.30;0.22;;;22.80;63.70;;;;;;5122002;28;20041;-34
2021/07/01 06:12:43;;;;;;;0.23;0.23;;;22.80;63.70;;;;;;5123254;28;20016;-34
2021/07/01 06:15:09;;;;;;;0.20;0.20;;;22.80;63.80;;;;;;5122960;28;20035;-34
2021/07/01 06:17:36;;;;;;;1.03;0.20;;;22.80;63.80;;;;;;5123171;28;20048;-34
2021/07/01 06:20:03;;;;;;;0.35;0.30;;;22.80;63.90;;;;;;5123302;28;20038;-34
2021/07/01 06:22:30;;;;;;;0.20;0.20;;;22.80;64.10;;;;;;5123045;28;20031;-34
2021/07/01 06:24:57;;;;;;;0.30;0.30;;;22.80;63.50;;;;;;5122697;28;20027;-35
2021/07/01 06:27:36;;;;;;;0.68;0.20;;;22.80;63.20;;;;;;5123110;28;20050;-34
2021/07/01 06:30:15;;;;;;;0.52;0.30;;;22.80;63.80;;;;;;5123261;28;20027;-34
2021/07/01 06:32:47;;;;;;;5.05;0.25;;;22.80;63.80;;;;;;5123159;28;20048;-34
2021/07/01 06:35:19;;;;;;;0.82;0.20;;;22.80;63.60;;;;;;5122586;28;20031;-34
2021/07/01 06:37:45;;;;;;;0.40;0.30;;;22.80;63.50;;;;;;5123057;28;20034;-34
2021/07/01 06:40:12;;;;;;;0.10;0.10;;;22.80;63.60;;;;;;5123099;28;20020;-34
2021/07/01 06:42:58;;;;;;;0.20;0.20;;;22.80;64.20;;;;;;5122949;28;20087;-34
2021/07/01 06:45:24;;;;;;;0.17;0.17;;;22.80;64.00;;;;;;5101155;28;20040;-35
2021/07/01 06:47:52;;;;;;;0.40;0.20;;;22.80;64.40;;;;;;5102644;28;20051;-35
2021/07/01 06:50:21;;;;;;;0.20;0.20;;;22.80;64.50;;;;;;5102652;28;20032;-35
2021/07/01 06:52:48;;;;;;;0.70;0.30;;;22.80;64.60;;;;;;5102664;28;20027;-34
2021/07/01 06:55:15;;;;;;;0.38;0.30;;;22.80;64.80;;;;;;5120969;28;20028;-36
2021/07/01 06:57:42;;;;;;;0.20;0.20;;;22.80;64.60;;;;;;5104010;28;20107;-34
2021/07/01 07:00:09;;;;;;;0.20;0.20;;;22.70;64.80;;;;;;5102429;28;20039;-34
2021/07/01 07:02:36;;;;;;;0.30;0.20;;;22.70;64.80;;;;;;5122811;28;20058;-35
2021/07/01 07:05:06;;;;;;;0.28;0.28;;;22.70;64.90;;;;;;5121242;28;20537;-34
2021/07/01 07:07:33;;;;;;;0.28;0.22;;;22.70;64.80;;;;;;5122342;28;20099;-34
2021/07/01 07:10:04;;;;;;;0.40;0.30;;;22.70;64.80;;;;;;5121943;28;20050;-34
2021/07/01 07:12:31;;;;;;;0.20;0.20;;;22.70;64.50;;;;;;5122490;28;20024;-35
2021/07/01 07:14:57;;;;;;;0.30;0.30;;;22.70;64.60;;;;;;5121280;28;20062;-34
2021/07/01 07:17:27;;;;;;;0.20;0.20;;;22.70;64.60;;;;;;5122536;28;20040;-35
2021/07/01 07:19:57;;;;;;;0.52;0.10;;;22.70;64.90;;;;;;5122835;28;20039;-35
2021/07/01 07:22:26;;;;;;;0.15;0.15;;;22.70;64.80;;;;;;5121637;28;20102;-34
2021/07/01 07:24:54;;;;;;;0.47;0.22;;;22.70;65.70;;;;;;5121985;28;20132;-34
2021/07/01 07:27:24;;;;;;;0.17;0.17;;;22.70;65.00;;;;;;5101555;28;20030;-34
2021/07/01 07:29:50;;;;;;;1.33;0.25;;;22.70;65.20;;;;;;5112695;28;20027;-34
2021/07/01 07:32:16;;;;;;;0.10;0.10;;;22.70;65.80;;;;;;5125089;28;20038;-34
2021/07/01 07:34:43;;;;;;;0.20;0.20;;;22.70;65.70;;;;;;5108024;28;20020;-34
2021/07/01 07:37:09;;;;;;;0.20;0.20;;;22.70;65.70;;;;;;5126062;28;20027;-34
2021/07/01 07:39:35;;;;;;;0.20;0.20;;;22.70;66.10;;;;;;5126357;28;20063;-34
2021/07/01 07:42:02;;;;;;;0.20;0.20;;;22.70;65.70;;;;;;5107642;28;20024;-34
2021/07/01 07:44:28;;;;;;;0.80;0.30;;;22.70;65.90;;;;;;5126125;28;20092;-35
2021/07/01 07:46:54;;;;;;;0.20;0.20;;;22.70;65.90;;;;;;5125914;28;20032;-34
2021/07/01 07:49:20;;;;;;;0.40;0.20;;;22.70;66.00;;;;;;5126152;28;20038;-34
2021/07/01 07:51:50;;;;;;;0.30;0.30;;;22.70;65.70;;;;;;5126146;28;20024;-34
2021/07/01 07:54:17;;;;;;;0.20;0.20;;;22.60;65.80;;;;;;5125908;28;20111;-34
2021/07/01 07:56:44;;;;;;;0.38;0.20;;;22.60;66.10;;;;;;5108201;28;20036;-35
2021/07/01 07:59:10;;;;;;;1.67;0.32;;;22.70;65.80;;;;;;5121515;27;20040;-35
2021/07/01 08:01:38;;;;;;;0.20;0.20;;;22.70;65.60;;;;;;5152227;27;20103;-34
2021/07/01 08:04:05;;;;;;;0.20;0.20;;;22.70;65.70;;;;;;5124234;28;20039;-34
2021/07/01 08:06:32;;;;;;;0.20;0.20;;;22.70;65.50;;;;;;5123724;28;20034;-34
2021/07/01 08:08:59;;;;;;;0.37;0.20;;;22.60;66.00;;;;;;5125206;28;20072;-35
2021/07/01 08:11:25;;;;;;;0.20;0.20;;;22.60;66.30;;;;;;5125622;28;20046;-34
2021/07/01 08:13:55;;;;;;;0.20;0.20;;;22.60;66.40;;;;;;5125785;28;20491;-34
2021/07/01 08:16:23;;;;;;;0.20;0.20;;;22.60;66.60;;;;;;5123930;28;20040;-34
2021/07/01 08:18:49;;;;;;;0.20;0.20;;;22.60;66.90;;;;;;5125512;27;20039;-34
2021/07/01 08:21:16;;;;;;;0.35;0.30;;;22.60;66.40;;;;;;5125595;28;20024;-35
2021/07/01 08:23:42;;;;;;;0.43;0.20;;;22.60;67.00;;;;;;5125557;28;20024;-34
2021/07/01 08:26:09;;;;;;;0.20;0.20;;;22.60;67.10;;;;;;5113881;28;20020;-34
2021/07/01 08:28:35;;;;;;;0.20;0.20;;;22.50;67.10;;;;;;5104713;28;20040;-34
2021/07/01 08:31:12;;;;;;;0.20;0.20;;;22.60;66.80;;;;;;5113976;28;20032;-34
2021/07/01 08:33:42;;;;;;;0.30;0.20;;;22.60;66.60;;;;;;5125180;28;20043;-34
2021/07/01 08:36:20;;;;;;;0.28;0.20;;;22.60;67.00;;;;;;5125054;28;20407;-34
2021/07/01 08:38:47;;;;;;;0.10;0.10;;;22.60;66.50;;;;;;5124726;28;20057;-34
2021/07/01 08:41:19;;;;;;;0.10;0.10;;;22.60;66.40;;;;;;5122363;28;20027;-35
2021/07/01 08:43:56;;;;;;;0.22;0.20;;;22.60;66.40;;;;;;5125204;28;20061;-34
2021/07/01 08:46:26;;;;;;;0.50;0.20;;;22.60;66.40;;;;;;5124932;28;20395;-34
2021/07/01 08:49:09;;;;;;;0.20;0.20;;;22.50;66.20;;;;;;5123066;28;20055;-34
2021/07/01 08:51:39;;;;;;;0.22;0.20;;;22.50;67.00;;;;;;5125057;28;20031;-35
2021/07/01 08:54:20;;;;;;;0.20;0.20;;;22.50;67.10;;;;;;5124846;28;20031;-34
2021/07/01 08:56:46;;;;;;;0.20;0.20;;;22.50;67.30;;;;;;5124701;28;20024;-34
2021/07/01 08:59:13;;;;;;;0.55;0.20;;;22.50;67.70;;;;;;5106142;28;20028;-34
2021/07/01 09:01:41;;;;;;;1.17;0.20;;;22.50;67.50;;;;;;5124596;28;20111;-34
2021/07/01 09:04:12;;;;;;;0.20;0.13;;;22.50;67.60;;;;;;5124664;28;20033;-34
2021/07/01 09:06:38;;;;;;;0.20;0.20;;;22.50;68.00;;;;;;5121046;28;20028;-35
2021/07/01 09:09:07;;;;;;;0.20;0.20;;;22.50;67.50;;;;;;5122586;28;20065;-34
2021/07/01 09:11:40;;;;;;;0.32;0.20;;;22.50;67.70;;;;;;5122109;28;20027;-34
2021/07/01 09:14:08;;;;;;;0.20;0.20;;;22.50;67.40;;;;;;5123913;28;20147;-34
2021/07/01 09:16:35;;;;;;;0.28;0.20;;;22.50;67.40;;;;;;5123340;28;20067;-34
2021/07/01 09:19:01;;;;;;;0.25;0.22;;;22.50;67.10;;;;;;5123472;28;20046;-34
2021/07/01 09:21:29;;;;;;;0.20;0.20;;;22.50;67.00;;;;;;5119252;28;20019;-34
2021/07/01 09:23:57;;;;;;;0.20;0.20;;;22.50;67.00;;;;;;5123766;28;20066;-34
2021/07/01 09:26:24;;;;;;;1.70;0.22;;;22.50;66.90;;;;;;5120301;28;20031;-35
2021/07/01 09:28:51;;;;;;;1.27;0.20;;;22.50;67.00;;;;;;5122244;28;20051;-34
2021/07/01 09:31:19;;;;;;;0.20;0.10;;;22.50;67.00;;;;;;5123085;28;20072;-34
2021/07/01 09:33:46;;;;;;;0.20;0.20;;;22.50;67.10;;;;;;5123379;28;20055;-35
2021/07/01 09:36:13;;;;;;;0.28;0.20;;;22.50;67.60;;;;;;5123405;28;20482;-35
2021/07/01 09:38:42;;;;;;;0.65;0.20;;;22.50;67.40;;;;;;5121320;28;20142;-34
2021/07/01 09:41:09;;;;;;;0.20;0.20;;;22.50;68.00;;;;;;5122968;28;20028;-34
2021/07/01 09:43:35;;;;;;;0.20;0.15;;;22.50;67.60;;;;;;5123209;28;20349;-34
2021/07/01 09:46:01;;;;;;;0.20;0.20;;;22.40;67.50;;;;;;5118291;28;20084;-39
2021/07/01 09:48:30;;;;;;;0.20;0.20;;;22.40;67.50;;;;;;5121698;28;20039;-39
2021/07/01 09:50:56;;;;;;;0.22;0.10;;;22.40;67.60;;;;;;5121119;28;20028;-39
2021/07/01 09:53:31;;;;;;;0.40;0.20;;;22.40;68.00;;;;;;5101114;28;20586;-40
2021/07/01 09:55:57;;;;;;;0.60;0.20;;;22.40;67.80;;;;;;5122651;28;20032;-39
2021/07/01 09:58:29;;;;;;;0.82;0.20;;;22.40;67.50;;;;;;5120603;28;20115;-40
2021/07/01 10:00:55;;;;;;;0.28;0.20;;;22.40;67.40;;;;;;5123010;28;20096;-43
2021/07/01 10:03:21;;;;;;;0.17;0.13;;;22.40;67.50;;;;;;5120985;28;20023;-39
2021/07/01 10:05:47;;;;;;;0.10;0.10;;;22.40;67.50;;;;;;5102735;28;20024;-39
2021/07/01 10:08:14;;;;;;;0.20;0.20;;;22.40;67.40;;;;;;5120245;28;20035;-39
2021/07/01 10:10:47;;;;;;;0.43;0.20;;;22.40;67.60;;;;;;5120906;28;20076;-38
2021/07/01 10:13:13;;;;;;;0.20;0.20;;;22.40;67.60;;;;;;5121717;28;20077;-41
2021/07/01 10:15:40;;;;;;;0.35;0.30;;;22.40;67.50;;;;;;5120819;28;20027;-40
2021/07/01 10:18:17;;;;;;;0.20;0.20;;;22.40;67.60;;;;;;5120706;28;20059;-39
2021/07/01 10:20:45;;;;;;;0.30;0.22;;;22.40;67.80;;;;;;5122084;28;20039;-39
2021/07/01 10:23:25;;;;;;;1.08;0.20;;;22.40;67.80;;;;;;5122039;28;20037;-39
2021/07/01 10:26:11;;;;;;;0.10;0.10;;;22.40;67.80;;;;;;5116476;28;20388;-40
2021/07/01 10:28:37;;;;;;;0.20;0.20;;;22.40;67.80;;;;;;5121917;28;20032;-39
2021/07/01 10:31:10;;;;;;;0.60;0.20;;;22.40;67.90;;;;;;5121443;28;20030;-40
2021/07/01 10:33:42;;;;;;;0.15;0.15;;;22.40;68.00;;;;;;5122243;28;20034;-40
2021/07/01 10:36:25;;;;;;;0.25;0.25;;;22.40;68.10;;;;;;5121773;28;20036;-39
2021/07/01 10:38:53;;;;;;;0.30;0.20;;;22.40;68.00;;;;;;5122243;28;20030;-40
2021/07/01 10:41:34;;;;;;;0.40;0.20;;;22.40;68.00;;;;;;5120686;28;20999;-39
2021/07/01 10:44:01;;;;;;;0.20;0.20;;;22.40;68.00;;;;;;5122237;28;20032;-40
2021/07/01 10:46:57;;;;;;;0.20;0.20;;;22.30;68.00;;;;;;5122419;28;20396;-40
2021/07/01 10:49:36;;;;;;;0.60;0.20;;;22.30;68.10;;;;;;5105396;28;20464;-40
2021/07/01 10:52:05;;;;;;;0.20;0.20;;;22.30;68.00;;;;;;5117128;28;20032;-40
2021/07/01 10:54:32;;;;;;;0.75;0.20;;;22.30;68.00;;;;;;5117889;28;20031;-39
2021/07/01 10:57:06;;;;;;;0.55;0.25;;;22.30;68.10;;;;;;5121782;28;20032;-39
2021/07/01 10:59:51;;;;;;;0.20;0.20;;;22.30;68.30;;;;;;5121642;28;20091;-39
2021/07/01 11:02:31;;;;;;;0.30;0.20;;;22.30;68.10;;;;;;5120453;28;20111;-39
2021/07/01 11:05:05;;;;;;;0.73;0.30;;;22.30;68.20;;;;;;5122956;28;20016;-38
2021/07/01 11:07:49;;;;;;;1.25;0.20;;;22.30;68.40;;;;;;5124539;28;20380;-39
2021/07/01 11:10:32;;;;;;;0.55;0.30;;;22.30;68.40;;;;;;5107601;28;20036;-39
2021/07/01 11:12:58;;;;;;;0.30;0.20;;;22.30;68.20;;;;;;5104139;28;20020;-39
2021/07/01 11:15:24;;;;;;;0.22;0.22;;;22.30;68.40;;;;;;5107398;28;20024;-39
2021/07/01 11:17:50;;;;;;;0.20;0.20;;;22.30;68.40;;;;;;5125712;28;20047;-40
2021/07/01 11:20:21;;;;;;;0.95;0.30;;;22.30;68.40;;;;;;5125672;28;20020;-41
2021/07/01 11:22:52;;;;;;;0.20;0.20;;;22.30;68.70;;;;;;5125673;28;20087;-39
2021/07/01 11:25:34;;;;;;;0.77;0.30;;;22.30;68.50;;;;;;5125874;28;20024;-39
2021/07/01 11:28:18;;;;;;;0.15;0.10;;;22.30;68.60;;;;;;5122539;28;20102;-40
2021/07/01 11:31:01;;;;;;;0.20;0.20;;;22.30;68.60;;;;;;5124112;28;20020;-39
2021/07/01 11:33:28;;;;;;;0.20;0.20;;;22.30;68.50;;;;;;5125183;28;20023;-41
2021/07/01 11:36:11;;;;;;;0.28;0.28;;;22.30;68.80;;;;;;5120974;28;20032;-41
2021/07/01 11:38:37;;;;;;;0.50;0.22;;;22.30;68.50;;;;;;5125570;28;20028;-38
2021/07/01 11:41:04;;;;;;;0.20;0.20;;;22.30;68.60;;;;;;5125271;28;20016;-40
2021/07/01 11:43:31;;;;;;;0.95;0.20;;;22.30;68.60;;;;;;5124214;28;20031;-40
2021/07/01 11:45:57;;;;;;;;;;;22.30;68.70;;;;;;5121728;28;20036;-40
2021/07/01 11:48:24;;;;;;;0.10;0.10;;;22.20;68.60;;;;;;5125094;28;19930;-40
2021/07/01 11:50:51;;;;;;;0.15;0.15;;;22.30;68.80;;;;;;5123617;28;20060;-40
2021/07/01 11:53:18;;;;;;;0.20;0.20;;;22.20;68.70;;;;;;5124314;28;20049;-41
2021/07/01 11:55:49;;;;;;;0.32;0.20;;;22.20;68.90;;;;;;5125346;28;20031;-39
2021/07/01 11:58:15;;;;;;;0.28;0.20;;;22.20;69.20;;;;;;5125016;28;20035;-40
2021/07/01 12:00:42;;;;;;;0.60;0.30;;;22.20;68.90;;;;;;5125185;28;20084;-39
2021/07/01 12:03:08;;;;;;;1.05;0.20;;;22.20;69.00;;;;;;5120711;27;20854;-42
2021/07/01 12:05:35;;;;;;;0.20;0.20;;;22.20;68.90;;;;;;5124939;28;20134;-40
2021/07/01 12:08:03;;;;;;;0.20;0.20;;;22.20;68.90;;;;;;5124447;28;20050;-40
2021/07/01 12:10:30;;;;;;;0.75;0.20;;;22.20;68.90;;;;;;5123565;28;20019;-40
2021/07/01 12:12:56;;;;;;;0.20;0.20;;;22.20;69.10;;;;;;5123870;28;20055;-40
2021/07/01 12:15:22;;;;;;;0.32;0.20;;;22.20;68.90;;;;;;5124565;28;20023;-39
2021/07/01 12:17:58;;;;;;;0.20;0.20;;;22.20;69.00;;;;;;5124544;27;20043;-40
2021/07/01 12:20:32;;;;;;;0.35;0.28;;;22.20;69.00;;;;;;5123142;28;20035;-40
2021/07/01 12:23:02;;;;;;;0.32;0.30;;;22.20;69.30;;;;;;5124075;28;20762;-40
2021/07/01 12:25:28;;;;;;;0.20;0.20;;;22.20;69.20;;;;;;5124416;28;20057;-39
2021/07/01 12:28:07;;;;;;;0.47;0.30;;;22.30;69.40;;;;;;5124516;27;20039;-39
2021/07/01 12:31:05;;;;;;;0.30;0.30;;;22.30;69.60;;;;;;5123609;28;20120;-39
2021/07/01 12:33:34;;;;;;;0.30;0.30;;;22.30;69.70;;;;;;5122268;28;20030;-40
2021/07/01 12:36:19;;;;;;;0.55;0.30;;;22.30;69.80;;;;;;5124197;28;20457;-39
2021/07/01 12:39:07;;;;;;;0.75;0.30;;;22.30;70.00;;;;;;5119378;28;20026;-39
2021/07/01 12:41:38;;;;;;;0.20;0.20;;;22.30;70.40;;;;;;5121380;28;20032;-40
2021/07/01 12:44:38;;;;;;;0.40;0.30;;;22.30;70.30;;;;;;5123724;28;20031;-40
2021/07/01 12:47:24;;;;;;;1.05;0.20;;;22.30;70.40;;;;;;5122496;28;20753;-38
2021/07/01 12:49:52;;;;;;;0.20;0.20;;;22.30;70.30;;;;;;5113485;28;20131;-40
2021/07/01 12:52:20;;;;;;;0.20;0.20;;;22.30;70.30;;;;;;5119962;28;20031;-39
2021/07/01 12:54:45;;;;;;;;;;;22.30;69.60;;;;;;5124416;28;20088;-40